createdAt,value
2023-03-24T00:00:32.854Z,3.33
2023-03-24T00:03:02.450Z,2.47
2023-03-24T00:05:30.572Z,3.57
2023-03-24T00:08:02.164Z,2.90
2023-03-24T00:10:34.318Z,2.03
2023-03-24T00:13:02.202Z,3.37
2023-03-24T00:15:30.211Z,3.60
2023-03-24T00:17:57.960Z,3.30
2023-03-24T00:20:26.696Z,3.60
2023-03-24T00:22:59.325Z,3.70
2023-03-24T00:25:29.862Z,3.50
2023-03-24T00:27:57.717Z,2.83
2023-03-24T00:30:25.875Z,3.53
2023-03-24T00:32:53.685Z,3.40
2023-03-24T00:35:21.738Z,3.50
2023-03-24T00:37:51.701Z,3.33
2023-03-24T00:40:20.918Z,3.40
2023-03-24T00:42:49.971Z,2.90
2023-03-24T00:45:23.182Z,3.57
2023-03-24T00:47:54.509Z,3.87
2023-03-24T00:50:26.684Z,2.73
2023-03-24T00:52:55.544Z,3.73
2023-03-24T00:55:23.137Z,3.80
2023-03-24T00:57:51.336Z,3.47
2023-03-24T01:00:25.437Z,2.20
2023-03-24T01:02:56.135Z,2.40
2023-03-24T01:05:27.749Z,3.90
2023-03-24T01:08:03.180Z,4.83
2023-03-24T01:10:34.396Z,3.07
2023-03-24T01:13:02.723Z,3.97
2023-03-24T01:15:36.430Z,3.80
2023-03-24T01:18:04.081Z,3.77
2023-03-24T01:20:36.468Z,3.90
2023-03-24T01:23:07.379Z,4.03
2023-03-24T01:25:36.915Z,3.90
2023-03-24T01:28:04.627Z,3.77
2023-03-24T01:30:32.051Z,2.70
2023-03-24T01:32:59.295Z,3.77
2023-03-24T01:35:29.408Z,3.93
2023-03-24T01:37:57.811Z,3.40
2023-03-24T01:40:30.745Z,3.30
2023-03-24T01:42:59.466Z,3.40
2023-03-24T01:45:39.362Z,3.00
2023-03-24T01:48:16.394Z,2.13
2023-03-24T01:50:48.660Z,3.80
2023-03-24T01:53:15.941Z,3.60
2023-03-24T01:55:47.577Z,2.73
2023-03-24T01:58:18.104Z,3.63
2023-03-24T02:00:54.562Z,3.57
2023-03-24T02:03:48.354Z,3.57
2023-03-24T02:06:18.423Z,3.53
2023-03-24T02:08:54.008Z,2.57
2023-03-24T02:11:25.487Z,2.20
2023-03-24T02:13:57.337Z,3.47
2023-03-24T02:16:43.042Z,1.70
2023-03-24T02:19:47.613Z,3.23
2023-03-24T02:22:21.682Z,2.77
2023-03-24T02:25:07.633Z,3.40
2023-03-24T02:28:13.618Z,2.47
2023-03-24T02:31:01.876Z,3.37
2023-03-24T02:33:57.391Z,3.30
2023-03-24T02:36:54.717Z,3.83
2023-03-24T02:39:38.024Z,3.83
2023-03-24T02:42:34.134Z,4.27
2023-03-24T02:45:24.047Z,2.97
2023-03-24T02:48:28.085Z,3.23
2023-03-24T02:51:13.175Z,3.00
2023-03-24T02:53:51.872Z,4.23
2023-03-24T02:56:36.264Z,3.73
2023-03-24T02:59:27.213Z,3.90
2023-03-24T03:02:23.445Z,3.53
2023-03-24T03:05:06.757Z,4.13
2023-03-24T03:07:37.338Z,4.10
2023-03-24T03:10:23.835Z,4.33
2023-03-24T03:12:56.129Z,3.73
2023-03-24T03:15:28.381Z,3.87
2023-03-24T03:18:05.643Z,5.50
2023-03-24T03:20:42.588Z,4.80
2023-03-24T03:23:14.111Z,4.03
2023-03-24T03:25:50.257Z,4.63
2023-03-24T03:28:23.440Z,4.90
2023-03-24T03:30:59.345Z,4.27
2023-03-24T03:33:43.968Z,4.27
2023-03-24T03:36:22.175Z,4.10
2023-03-24T03:39:03.941Z,4.23
2023-03-24T03:41:32.004Z,4.47
2023-03-24T03:44:00.279Z,3.70
2023-03-24T03:46:28.258Z,6.03
2023-03-24T03:48:56.965Z,4.67
2023-03-24T03:51:24.567Z,5.10
2023-03-24T03:53:59.659Z,5.10
2023-03-24T03:56:30.971Z,4.73
2023-03-24T03:59:23.383Z,5.73
2023-03-24T04:01:51.249Z,5.27
2023-03-24T04:05:05.656Z,6.20
2023-03-24T04:08:07.288Z,5.00
2023-03-24T04:11:09.193Z,4.40
2023-03-24T04:13:59.213Z,3.83
2023-03-24T04:17:20.565Z,3.07
2023-03-24T04:20:12.154Z,4.60
2023-03-24T04:23:03.117Z,4.17
2023-03-24T04:25:40.833Z,4.53
2023-03-24T04:28:19.118Z,3.37
2023-03-24T04:30:52.271Z,5.40
2023-03-24T04:33:32.671Z,5.10
2023-03-24T04:36:18.718Z,4.30
2023-03-24T04:39:05.984Z,4.03
2023-03-24T04:41:41.540Z,5.30
2023-03-24T04:44:17.585Z,5.20
2023-03-24T04:47:03.429Z,4.70
2023-03-24T04:49:30.674Z,5.10
2023-03-24T04:51:57.971Z,5.50
2023-03-24T04:54:28.146Z,3.87
2023-03-24T04:57:02.867Z,5.80
2023-03-24T04:59:34.361Z,5.50
2023-03-24T05:02:04.101Z,4.60
2023-03-24T05:04:38.140Z,3.30
2023-03-24T05:07:18.548Z,4.60
2023-03-24T05:09:49.251Z,5.30
2023-03-24T05:12:17.759Z,5.13
2023-03-24T05:15:16.639Z,4.60
2023-03-24T05:17:44.786Z,4.20
2023-03-24T05:20:12.411Z,5.93
2023-03-24T05:22:44.212Z,5.53
2023-03-24T05:25:11.836Z,5.03
2023-03-24T05:27:39.002Z,5.43
2023-03-24T05:30:17.615Z,5.90
2023-03-24T05:32:46.809Z,5.00
2023-03-24T05:35:14.750Z,4.70
2023-03-24T05:37:43.567Z,5.20
2023-03-24T05:40:11.478Z,5.50
2023-03-24T05:42:51.852Z,4.37
2023-03-24T05:45:20.467Z,5.33
2023-03-24T05:47:49.047Z,4.80
2023-03-24T05:50:21.547Z,2.67
2023-03-24T05:52:48.804Z,3.27
2023-03-24T05:55:35.753Z,4.63
2023-03-24T05:58:15.740Z,4.53
2023-03-24T06:00:49.664Z,4.90
2023-03-24T06:03:34.041Z,4.00
2023-03-24T06:06:08.711Z,4.70
2023-03-24T06:08:36.253Z,4.97
2023-03-24T06:11:04.461Z,4.23
2023-03-24T06:13:34.472Z,4.00
2023-03-24T06:16:03.553Z,4.20
2023-03-24T06:18:52.379Z,4.60
2023-03-24T06:21:39.549Z,4.47
2023-03-24T06:24:07.565Z,3.70
2023-03-24T06:26:36.310Z,3.37
2023-03-24T06:29:04.219Z,4.07
2023-03-24T06:31:37.104Z,4.70
2023-03-24T06:34:04.954Z,4.03
2023-03-24T06:36:34.588Z,4.40
2023-03-24T06:39:02.777Z,3.73
2023-03-24T06:41:31.290Z,3.73
2023-03-24T06:44:01.056Z,4.13
2023-03-24T06:46:28.902Z,4.63
2023-03-24T06:48:56.355Z,3.90
2023-03-24T06:51:23.592Z,4.13
2023-03-24T06:53:50.988Z,3.73
2023-03-24T06:56:20.102Z,3.80
2023-03-24T06:58:54.909Z,3.33
2023-03-24T07:01:27.738Z,2.80
2023-03-24T07:03:57.754Z,3.40
2023-03-24T07:06:58.647Z,2.43
2023-03-24T07:09:32.770Z,3.00
2023-03-24T07:12:02.192Z,3.27
2023-03-24T07:14:30.419Z,2.67
2023-03-24T07:16:59.295Z,2.60
2023-03-24T07:19:47.873Z,3.20
2023-03-24T07:22:46.164Z,1.93
2023-03-24T07:25:35.207Z,1.60
2023-03-24T07:28:14.568Z,1.40
2023-03-24T07:30:43.055Z,1.43
2023-03-24T07:33:13.155Z,1.70
2023-03-24T07:35:44.514Z,1.87
2023-03-24T07:38:12.093Z,1.47
2023-03-24T07:40:39.874Z,1.40
2023-03-24T07:43:07.416Z,1.37
2023-03-24T07:46:02.618Z,1.03
2023-03-24T07:48:29.978Z,1.33
2023-03-24T07:50:57.306Z,1.33
2023-03-24T07:53:47.610Z,1.10
2023-03-24T07:56:22.187Z,0.90
2023-03-24T07:58:54.639Z,1.20
2023-03-24T08:01:52.611Z,1.40
2023-03-24T08:04:33.358Z,1.57
2023-03-24T08:07:05.622Z,1.00
2023-03-24T08:09:32.771Z,1.30
2023-03-24T08:12:04.348Z,1.37
2023-03-24T08:14:40.925Z,1.53
2023-03-24T08:17:09.229Z,1.20
2023-03-24T08:19:45.419Z,1.27
2023-03-24T08:22:19.889Z,1.00
2023-03-24T08:24:47.514Z,1.00
2023-03-24T08:27:14.723Z,1.17
2023-03-24T08:29:42.501Z,1.00
2023-03-24T08:32:10.160Z,1.30
2023-03-24T08:34:37.975Z,1.00
2023-03-24T08:37:05.942Z,0.87
2023-03-24T08:39:35.772Z,0.80
2023-03-24T08:42:03.300Z,1.30
2023-03-24T08:44:32.799Z,0.90
2023-03-24T08:47:03.087Z,1.67
2023-03-24T08:49:30.818Z,1.20
2023-03-24T08:51:58.220Z,1.77
2023-03-24T08:54:26.141Z,0.80
2023-03-24T08:56:53.470Z,1.23
2023-03-24T08:59:20.679Z,1.40
2023-03-24T09:01:48.843Z,1.40
2023-03-24T09:04:16.743Z,1.50
2023-03-24T09:06:44.032Z,0.90
2023-03-24T09:09:13.270Z,1.40
2023-03-24T09:11:41.487Z,1.10
2023-03-24T09:14:08.615Z,1.40
2023-03-24T09:16:35.897Z,1.50
2023-03-24T09:19:03.271Z,1.63
2023-03-24T09:21:30.612Z,1.60
2023-03-24T09:23:57.987Z,1.00
2023-03-24T09:26:25.385Z,1.30
2023-03-24T09:28:52.556Z,1.40
2023-03-24T09:31:44.902Z,1.53
2023-03-24T09:34:12.132Z,1.63
2023-03-24T09:36:39.415Z,1.50
2023-03-24T09:39:06.835Z,1.80
2023-03-24T09:41:34.652Z,1.20
2023-03-24T09:44:31.384Z,1.40
2023-03-24T09:47:33.949Z,1.83
2023-03-24T09:50:06.914Z,1.67
2023-03-24T09:52:39.762Z,1.50
2023-03-24T09:55:14.303Z,1.60
2023-03-24T09:57:47.833Z,1.10
2023-03-24T10:00:28.250Z,1.90
2023-03-24T10:03:23.404Z,1.40
2023-03-24T10:06:09.515Z,1.03
2023-03-24T10:08:50.312Z,1.10
2023-03-24T10:11:38.029Z,1.20
2023-03-24T10:14:21.619Z,1.70
2023-03-24T10:17:20.701Z,1.53
2023-03-24T10:20:24.774Z,1.50
2023-03-24T10:23:12.064Z,1.20
2023-03-24T10:26:11.163Z,1.90
2023-03-24T10:29:04.914Z,1.90
2023-03-24T10:31:36.289Z,1.40
2023-03-24T10:34:04.066Z,1.27
2023-03-24T10:36:32.256Z,1.60
2023-03-24T10:39:06.476Z,1.40
2023-03-24T10:41:44.801Z,1.03
2023-03-24T10:44:13.947Z,1.73
2023-03-24T10:46:46.993Z,1.13
2023-03-24T10:49:19.819Z,1.90
2023-03-24T10:51:52.193Z,1.87
2023-03-24T10:54:22.176Z,1.23
2023-03-24T10:57:06.079Z,1.43
2023-03-24T10:59:39.683Z,1.27
2023-03-24T11:02:09.895Z,1.10
2023-03-24T11:04:39.248Z,1.60
2023-03-24T11:07:18.149Z,1.10
2023-03-24T11:09:47.827Z,1.30
2023-03-24T11:12:23.545Z,1.27
2023-03-24T11:14:51.341Z,1.10
2023-03-24T11:17:21.948Z,1.87
2023-03-24T11:19:54.414Z,1.43
2023-03-24T11:22:21.878Z,1.03
2023-03-24T11:24:52.536Z,2.00
2023-03-24T11:27:20.285Z,1.57
2023-03-24T11:29:55.371Z,1.40
2023-03-24T11:32:27.206Z,1.10
2023-03-24T11:35:05.713Z,1.77
2023-03-24T11:37:37.095Z,1.27
2023-03-24T11:40:14.514Z,1.70
2023-03-24T11:42:47.568Z,1.67
2023-03-24T11:45:27.907Z,1.40
2023-03-24T11:47:57.823Z,1.70
2023-03-24T11:50:34.203Z,2.00
2023-03-24T11:53:12.297Z,1.70
2023-03-24T11:55:59.413Z,1.80
2023-03-24T11:58:37.574Z,1.43
2023-03-24T12:01:20.651Z,1.20
2023-03-24T12:03:59.235Z,1.40
2023-03-24T12:06:41.568Z,1.70
2023-03-24T12:09:41.144Z,1.60
2023-03-24T12:12:33.626Z,1.80
2023-03-24T12:15:24.748Z,1.50
2023-03-24T12:18:15.813Z,1.47
2023-03-24T12:21:01.229Z,1.60
2023-03-24T12:23:51.827Z,1.30
2023-03-24T12:26:23.470Z,1.73
2023-03-24T12:29:17.172Z,1.40
2023-03-24T12:32:13.629Z,1.03
2023-03-24T12:34:55.851Z,1.40
2023-03-24T12:37:44.808Z,1.70
2023-03-24T12:40:12.847Z,1.43
2023-03-24T12:43:01.521Z,1.90
2023-03-24T12:45:43.988Z,2.03
2023-03-24T12:48:19.014Z,1.50
2023-03-24T12:51:01.083Z,1.50
2023-03-24T12:53:53.713Z,1.80
2023-03-24T12:56:30.177Z,1.50
2023-03-24T12:59:04.657Z,1.60
2023-03-24T13:02:10.187Z,1.80
2023-03-24T13:04:42.189Z,1.63
2023-03-24T13:07:11.998Z,1.37
2023-03-24T13:09:57.481Z,1.90
2023-03-24T13:12:40.852Z,1.30
2023-03-24T13:15:31.699Z,1.70
2023-03-24T13:18:11.192Z,1.30
2023-03-24T13:21:11.127Z,1.50
2023-03-24T13:23:55.101Z,1.57
2023-03-24T13:26:54.958Z,1.40
2023-03-24T13:29:49.513Z,1.50
2023-03-24T13:32:30.406Z,1.30
2023-03-24T13:35:21.746Z,1.50
2023-03-24T13:37:54.006Z,1.20
2023-03-24T13:40:24.735Z,0.80
2023-03-24T13:43:06.728Z,1.90
2023-03-24T13:45:47.719Z,1.37
2023-03-24T13:48:41.557Z,2.20
2023-03-24T13:51:27.614Z,1.27
2023-03-24T13:54:20.568Z,1.37
2023-03-24T13:57:02.729Z,1.70
2023-03-24T14:00:01.899Z,1.40
2023-03-24T14:02:56.076Z,1.27
2023-03-24T14:05:24.005Z,1.40
2023-03-24T14:08:04.384Z,1.30
2023-03-24T14:10:46.371Z,1.53
2023-03-24T14:13:13.486Z,1.40
2023-03-24T14:15:45.796Z,1.50
2023-03-24T14:18:25.871Z,1.33
2023-03-24T14:20:56.857Z,1.43
2023-03-24T14:23:45.556Z,1.10
2023-03-24T14:26:20.296Z,1.40
2023-03-24T14:28:52.789Z,1.27
2023-03-24T14:31:29.457Z,1.77
2023-03-24T14:34:02.243Z,1.23
2023-03-24T14:36:35.035Z,1.30
2023-03-24T14:39:27.169Z,1.30
2023-03-24T14:41:56.294Z,1.63
2023-03-24T14:44:52.296Z,1.53
2023-03-24T14:47:29.969Z,1.30
2023-03-24T14:49:59.999Z,1.37
2023-03-24T14:52:43.074Z,1.33
2023-03-24T14:55:13.103Z,1.20
2023-03-24T14:57:42.236Z,1.10
2023-03-24T15:00:15.723Z,1.10
2023-03-24T15:02:50.512Z,1.73
2023-03-24T15:05:23.403Z,1.30
2023-03-24T15:08:12.360Z,1.50
2023-03-24T15:10:50.000Z,1.17
2023-03-24T15:13:25.942Z,0.90
2023-03-24T15:15:53.286Z,1.53
2023-03-24T15:18:25.411Z,1.40
2023-03-24T15:20:53.316Z,1.00
2023-03-24T15:23:28.082Z,1.10
2023-03-24T15:25:56.448Z,1.53
2023-03-24T15:28:28.923Z,1.17
2023-03-24T15:31:01.169Z,1.30
2023-03-24T15:33:30.957Z,1.40
2023-03-24T15:35:59.739Z,1.60
2023-03-24T15:38:33.558Z,1.33
2023-03-24T15:41:04.850Z,1.70
2023-03-24T15:43:32.144Z,1.93
2023-03-24T15:46:11.666Z,1.50
2023-03-24T15:48:40.146Z,1.30
2023-03-24T15:51:11.347Z,1.43
2023-03-24T15:53:48.968Z,2.10
2023-03-24T15:56:20.781Z,1.27
2023-03-24T15:58:53.739Z,1.53
2023-03-24T16:01:27.283Z,1.50
2023-03-24T16:03:54.886Z,1.43
2023-03-24T16:06:30.172Z,1.60
2023-03-24T16:09:03.975Z,1.80
2023-03-24T16:11:31.800Z,2.17
2023-03-24T16:13:59.200Z,2.23
2023-03-24T16:16:29.221Z,1.40
2023-03-24T16:18:59.089Z,1.37
2023-03-24T16:21:28.635Z,1.77
2023-03-24T16:23:57.968Z,1.87
2023-03-24T16:26:28.082Z,1.77
2023-03-24T16:29:00.395Z,2.20
2023-03-24T16:31:30.990Z,1.40
2023-03-24T16:33:59.194Z,1.73
2023-03-24T16:36:27.494Z,1.80
2023-03-24T16:38:56.757Z,1.83
2023-03-24T16:41:24.181Z,1.83
2023-03-24T16:43:52.933Z,1.80
2023-03-24T16:46:26.143Z,2.00
2023-03-24T16:48:54.316Z,2.00
2023-03-24T16:51:22.046Z,1.67
2023-03-24T16:53:49.507Z,1.73
2023-03-24T16:56:19.388Z,2.37
2023-03-24T16:58:48.072Z,1.63
2023-03-24T17:01:28.274Z,1.83
2023-03-24T17:04:16.636Z,1.87
2023-03-24T17:06:48.897Z,1.80
2023-03-24T17:09:16.894Z,1.40
2023-03-24T17:11:47.950Z,1.93
2023-03-24T17:14:15.394Z,1.80
2023-03-24T17:16:44.785Z,1.80
2023-03-24T17:19:17.672Z,1.43
2023-03-24T17:21:52.733Z,1.67
2023-03-24T17:24:21.048Z,1.93
2023-03-24T17:26:48.388Z,2.17
2023-03-24T17:29:15.670Z,1.93
2023-03-24T17:31:43.288Z,1.87
2023-03-24T17:36:44.901Z,1.73
2023-03-24T17:39:16.899Z,1.30
2023-03-24T17:41:44.538Z,2.63
2023-03-24T17:44:11.869Z,0.97
2023-03-24T17:46:39.198Z,1.77
2023-03-24T17:49:06.661Z,1.40
2023-03-24T17:51:33.941Z,1.10
2023-03-24T17:54:01.488Z,1.67
2023-03-24T17:56:28.754Z,1.40
2023-03-24T17:58:58.947Z,1.60
2023-03-24T18:01:29.201Z,2.60
2023-03-24T18:03:57.166Z,1.37
2023-03-24T18:06:24.383Z,1.80
2023-03-24T18:08:52.292Z,1.50
2023-03-24T18:11:19.973Z,1.40
2023-03-24T18:13:47.685Z,1.43
2023-03-24T18:18:47.089Z,1.33
2023-03-24T18:21:14.432Z,1.00
2023-03-24T18:23:41.779Z,1.33
2023-03-24T18:26:09.449Z,1.33
2023-03-24T18:28:38.519Z,1.33
2023-03-24T18:31:10.652Z,1.53
2023-03-24T18:33:38.021Z,1.43
2023-03-24T18:36:05.878Z,2.30
2023-03-24T18:38:33.281Z,1.80
2023-03-24T18:41:06.395Z,1.70
2023-03-24T18:43:39.280Z,1.67
2023-03-24T18:46:11.306Z,1.77
2023-03-24T18:48:43.487Z,1.70
2023-03-24T18:51:12.051Z,1.60
2023-03-24T18:53:39.898Z,1.50
2023-03-24T18:56:08.425Z,1.80
2023-03-24T18:58:40.759Z,1.57
2023-03-24T19:01:11.205Z,1.77
2023-03-24T19:03:41.101Z,1.57
2023-03-24T19:06:11.536Z,1.73
2023-03-24T19:08:41.699Z,1.73
2023-03-24T19:11:10.134Z,1.60
2023-03-24T19:13:38.133Z,2.10
2023-03-24T19:16:06.174Z,1.60
2023-03-24T19:18:33.551Z,1.60
2023-03-24T19:21:02.070Z,1.77
2023-03-24T19:23:30.706Z,1.93
2023-03-24T19:25:58.586Z,1.23
2023-03-24T19:28:29.391Z,1.40
2023-03-24T19:30:59.315Z,1.93
2023-03-24T19:33:28.032Z,1.37
2023-03-24T19:35:55.538Z,1.80
2023-03-24T19:38:24.210Z,1.60
2023-03-24T19:40:53.696Z,1.63
2023-03-24T19:43:22.506Z,1.50
2023-03-24T19:45:54.467Z,2.10
2023-03-24T19:48:23.368Z,1.70
2023-03-24T19:50:52.480Z,1.50
2023-03-24T19:53:21.184Z,1.67
2023-03-24T19:55:49.198Z,1.27
2023-03-24T19:58:17.625Z,2.10
2023-03-24T20:00:44.983Z,2.50
2023-03-24T20:03:12.450Z,1.47
2023-03-24T20:05:39.869Z,1.90
2023-03-24T20:08:07.232Z,1.40
2023-03-24T20:10:35.948Z,1.83
2023-03-24T20:13:03.371Z,1.40
2023-03-24T20:15:30.941Z,1.70
2023-03-24T20:17:58.415Z,1.30
2023-03-24T20:20:25.767Z,1.50
2023-03-24T20:22:53.229Z,1.80
2023-03-24T20:25:22.180Z,1.70
2023-03-24T20:27:49.816Z,1.60
2023-03-24T20:30:18.651Z,1.43
2023-03-24T20:32:46.562Z,1.67
2023-03-24T20:35:14.234Z,1.50
2023-03-24T20:37:42.148Z,1.97
2023-03-24T20:40:09.850Z,1.50
2023-03-24T20:42:37.629Z,1.87
2023-03-24T20:45:07.374Z,1.43
2023-03-24T20:47:35.438Z,1.80
2023-03-24T20:50:03.487Z,1.60
2023-03-24T20:52:32.490Z,1.50
2023-03-24T20:55:01.467Z,2.10
2023-03-24T20:57:31.172Z,2.10
2023-03-24T20:59:59.052Z,1.17
2023-03-24T21:02:26.456Z,2.33
2023-03-24T21:04:53.842Z,2.10
2023-03-24T21:07:21.224Z,1.60
2023-03-24T21:09:48.483Z,1.50
2023-03-24T21:12:16.305Z,2.37
2023-03-24T21:14:46.582Z,1.43
2023-03-24T21:17:14.440Z,1.43
2023-03-24T21:19:46.729Z,1.17
2023-03-24T21:22:15.218Z,1.80
2023-03-24T21:24:42.606Z,1.77
2023-03-24T21:27:10.638Z,2.57
2023-03-24T21:29:38.041Z,1.73
2023-03-24T21:32:05.367Z,2.03
2023-03-24T21:34:32.680Z,1.80
2023-03-24T21:37:01.466Z,2.20
2023-03-24T21:39:29.064Z,1.50
2023-03-24T21:41:56.591Z,2.10
2023-03-24T21:44:24.865Z,1.37
2023-03-24T21:46:52.266Z,2.00
2023-03-24T21:49:19.887Z,1.70
2023-03-24T21:51:47.769Z,1.60
2023-03-24T21:54:15.117Z,2.00
2023-03-24T21:56:42.482Z,2.07
2023-03-24T21:59:11.042Z,1.63
2023-03-24T22:01:38.642Z,2.00
2023-03-24T22:04:08.458Z,1.90
2023-03-24T22:06:38.478Z,1.70
2023-03-24T22:09:06.691Z,1.40
2023-03-24T22:11:35.823Z,1.63
2023-03-24T22:14:03.908Z,1.53
2023-03-24T22:16:32.835Z,1.60
2023-03-24T22:19:01.390Z,1.67
2023-03-24T22:21:28.636Z,1.73
2023-03-24T22:23:55.858Z,1.70
2023-03-24T22:26:23.035Z,1.73
2023-03-24T22:28:50.715Z,1.70
2023-03-24T22:31:18.651Z,2.30
2023-03-24T22:33:47.844Z,2.33
2023-03-24T22:36:15.422Z,1.70
2023-03-24T22:38:42.770Z,2.10
2023-03-24T22:41:12.092Z,2.13
2023-03-24T22:43:40.822Z,3.00
2023-03-24T22:46:09.459Z,2.40
2023-03-24T22:48:38.292Z,2.10
2023-03-24T22:51:05.647Z,2.50
2023-03-24T22:53:33.132Z,3.00
2023-03-24T22:56:01.187Z,3.10
2023-03-24T22:58:28.363Z,2.47
2023-03-24T23:00:57.166Z,2.80
2023-03-24T23:03:24.525Z,2.90
2023-03-24T23:05:51.978Z,3.23
2023-03-24T23:08:19.494Z,3.10
2023-03-24T23:10:47.367Z,3.20
2023-03-24T23:13:16.843Z,3.37
2023-03-24T23:15:44.313Z,3.10
2023-03-24T23:18:11.953Z,3.03
2023-03-24T23:20:40.595Z,3.23
2023-03-24T23:23:08.074Z,3.03
2023-03-24T23:25:43.703Z,3.60
2023-03-24T23:28:11.872Z,4.10
2023-03-24T23:30:40.330Z,3.27
2023-03-24T23:33:08.386Z,3.60
2023-03-24T23:35:37.194Z,4.40
2023-03-24T23:38:06.535Z,4.07
2023-03-24T23:40:33.847Z,4.20
2023-03-24T23:43:01.831Z,3.83
2023-03-24T23:45:29.069Z,3.77
2023-03-24T23:47:56.521Z,3.90
2023-03-24T23:50:23.692Z,3.90
2023-03-24T23:52:50.854Z,4.20
2023-03-24T23:55:18.444Z,4.47
2023-03-24T23:57:46.834Z,4.77
